sensor_id;sensor_type;location;lat;lon;timestamp;pressure;altitude;pressure_sealevel;temperature;humidity
32761;BME280;19126;47.472;7.850;2023-02-04T00:00:02;98121.53;;;5.11;100.00
32761;BME280;19126;47.472;7.850;2023-02-04T00:02:30;98122.47;;;5.10;100.00
32761;BME280;19126;47.472;7.850;2023-02-04T00:04:57;98126.53;;;5.14;100.00
32761;BME280;19126;47.472;7.850;2023-02-04T00:07:25;98128.59;;;5.09;100.00
32761;BME280;19126;47.472;7.850;2023-02-04T00:09:52;98137.34;;;5.08;100.00
32761;BME280;19126;47.472;7.850;2023-02-04T00:12:19;98138.38;;;5.05;100.00
32761;BME280;19126;47.472;7.850;2023-02-04T00:14:46;98137.66;;;5.03;100.00
32761;BME280;19126;47.472;7.850;2023-02-04T00:17:14;98138.78;;;4.99;100.00
32761;BME280;19126;47.472;7.850;2023-02-04T00:19:42;98134.84;;;4.93;100.00
32761;BME280;19126;47.472;7.850;2023-02-04T00:22:09;98133.25;;;4.91;100.00
32761;BME280;19126;47.472;7.850;2023-02-04T00:24:37;98130.75;;;4.89;100.00
32761;BME280;19126;47.472;7.850;2023-02-04T00:27:04;98132.91;;;4.82;100.00
32761;BME280;19126;47.472;7.850;2023-02-04T00:29:31;98138.78;;;4.86;100.00
32761;BME280;19126;47.472;7.850;2023-02-04T00:31:59;98146.25;;;4.78;100.00
32761;BME280;19126;47.472;7.850;2023-02-04T00:34:27;98138.31;;;4.79;100.00
32761;BME280;19126;47.472;7.850;2023-02-04T00:36:54;98139.47;;;4.75;100.00
32761;BME280;19126;47.472;7.850;2023-02-04T00:39:21;98144.88;;;4.72;100.00
32761;BME280;19126;47.472;7.850;2023-02-04T00:41:48;98150.19;;;4.71;100.00
32761;BME280;19126;47.472;7.850;2023-02-04T00:44:15;98149.13;;;4.73;99.66
32761;BME280;19126;47.472;7.850;2023-02-04T00:46:42;98152.78;;;4.71;98.74
32761;BME280;19126;47.472;7.850;2023-02-04T00:49:10;98148.06;;;4.63;97.13
32761;BME280;19126;47.472;7.850;2023-02-04T00:51:39;98140.16;;;4.64;96.14
32761;BME280;19126;47.472;7.850;2023-02-04T00:54:09;98141.00;;;4.65;95.25
32761;BME280;19126;47.472;7.850;2023-02-04T00:56:36;98142.22;;;4.59;94.09
32761;BME280;19126;47.472;7.850;2023-02-04T00:59:03;98147.25;;;4.62;93.14
32761;BME280;19126;47.472;7.850;2023-02-04T01:01:30;98143.16;;;4.58;91.77
32761;BME280;19126;47.472;7.850;2023-02-04T01:03:57;98146.31;;;4.63;90.93
32761;BME280;19126;47.472;7.850;2023-02-04T01:06:24;98140.44;;;4.60;90.77
32761;BME280;19126;47.472;7.850;2023-02-04T01:08:53;98144.84;;;4.59;90.52
32761;BME280;19126;47.472;7.850;2023-02-04T01:11:20;98149.31;;;4.57;90.89
32761;BME280;19126;47.472;7.850;2023-02-04T01:13:47;98154.50;;;4.57;90.16
32761;BME280;19126;47.472;7.850;2023-02-04T01:16:14;98154.59;;;4.55;89.25
32761;BME280;19126;47.472;7.850;2023-02-04T01:18:41;98150.44;;;4.53;87.38
32761;BME280;19126;47.472;7.850;2023-02-04T01:21:08;98159.19;;;4.52;85.71
32761;BME280;19126;47.472;7.850;2023-02-04T01:23:35;98165.31;;;4.51;85.32
32761;BME280;19126;47.472;7.850;2023-02-04T01:26:04;98167.06;;;4.50;84.87
32761;BME280;19126;47.472;7.850;2023-02-04T01:28:31;98169.78;;;4.49;84.38
32761;BME280;19126;47.472;7.850;2023-02-04T01:30:58;98153.44;;;4.47;84.25
32761;BME280;19126;47.472;7.850;2023-02-04T01:33:25;98159.44;;;4.47;83.77
32761;BME280;19126;47.472;7.850;2023-02-04T01:35:52;98150.81;;;4.47;82.30
32761;BME280;19126;47.472;7.850;2023-02-04T01:38:19;98156.09;;;4.45;83.76
32761;BME280;19126;47.472;7.850;2023-02-04T01:40:46;98149.16;;;4.46;82.75
32761;BME280;19126;47.472;7.850;2023-02-04T01:43:15;98146.56;;;4.46;81.29
32761;BME280;19126;47.472;7.850;2023-02-04T01:45:43;98148.31;;;4.45;80.43
32761;BME280;19126;47.472;7.850;2023-02-04T01:48:10;98151.44;;;4.50;81.38
32761;BME280;19126;47.472;7.850;2023-02-04T01:50:45;98155.72;;;4.51;81.43
32761;BME280;19126;47.472;7.850;2023-02-04T01:53:12;98161.78;;;4.52;81.20
32761;BME280;19126;47.472;7.850;2023-02-04T01:55:41;98149.59;;;4.52;82.86
32761;BME280;19126;47.472;7.850;2023-02-04T01:58:09;98145.44;;;4.50;82.18
32761;BME280;19126;47.472;7.850;2023-02-04T02:00:38;98152.56;;;4.46;82.32
32761;BME280;19126;47.472;7.850;2023-02-04T02:03:06;98149.34;;;4.43;81.66
32761;BME280;19126;47.472;7.850;2023-02-04T02:05:37;98145.09;;;4.42;82.50
32761;BME280;19126;47.472;7.850;2023-02-04T02:08:05;98132.34;;;4.37;83.21
32761;BME280;19126;47.472;7.850;2023-02-04T02:10:36;98130.28;;;4.42;82.21
32761;BME280;19126;47.472;7.850;2023-02-04T02:13:04;98121.94;;;4.37;81.30
32761;BME280;19126;47.472;7.850;2023-02-04T02:15:34;98124.66;;;4.35;80.75
32761;BME280;19126;47.472;7.850;2023-02-04T02:18:08;98123.00;;;4.34;80.53
32761;BME280;19126;47.472;7.850;2023-02-04T02:20:36;98104.84;;;4.33;77.90
32761;BME280;19126;47.472;7.850;2023-02-04T02:23:05;98105.06;;;4.30;75.02
32761;BME280;19126;47.472;7.850;2023-02-04T02:25:41;98109.72;;;4.24;71.96
32761;BME280;19126;47.472;7.850;2023-02-04T02:28:10;98122.06;;;4.35;72.33
32761;BME280;19126;47.472;7.850;2023-02-04T02:30:41;98111.44;;;4.38;73.21
32761;BME280;19126;47.472;7.850;2023-02-04T02:33:10;98118.22;;;4.41;73.48
32761;BME280;19126;47.472;7.850;2023-02-04T02:35:44;98104.19;;;4.44;73.50
32761;BME280;19126;47.472;7.850;2023-02-04T02:38:15;98099.47;;;4.36;73.37
32761;BME280;19126;47.472;7.850;2023-02-04T02:40:47;98089.56;;;4.28;71.76
32761;BME280;19126;47.472;7.850;2023-02-04T02:43:27;98099.47;;;4.36;71.36
32761;BME280;19126;47.472;7.850;2023-02-04T02:46:00;98099.25;;;4.39;70.23
32761;BME280;19126;47.472;7.850;2023-02-04T02:48:31;98086.84;;;4.30;69.74
32761;BME280;19126;47.472;7.850;2023-02-04T02:51:00;98079.69;;;4.33;69.76
32761;BME280;19126;47.472;7.850;2023-02-04T02:53:33;98087.38;;;4.35;69.37
32761;BME280;19126;47.472;7.850;2023-02-04T02:56:11;98085.81;;;4.32;69.88
32761;BME280;19126;47.472;7.850;2023-02-04T02:58:48;98079.44;;;4.23;68.68
32761;BME280;19126;47.472;7.850;2023-02-04T03:01:27;98061.34;;;4.22;68.40
32761;BME280;19126;47.472;7.850;2023-02-04T03:03:57;98071.63;;;4.23;68.44
32761;BME280;19126;47.472;7.850;2023-02-04T03:06:27;98069.22;;;4.20;67.38
32761;BME280;19126;47.472;7.850;2023-02-04T03:09:04;98067.66;;;4.18;68.17
32761;BME280;19126;47.472;7.850;2023-02-04T03:11:45;98079.63;;;4.20;67.63
32761;BME280;19126;47.472;7.850;2023-02-04T03:14:17;98092.44;;;4.23;68.20
32761;BME280;19126;47.472;7.850;2023-02-04T03:16:56;98085.47;;;4.24;67.27
32761;BME280;19126;47.472;7.850;2023-02-04T03:20:04;98079.09;;;4.15;67.57
32761;BME280;19126;47.472;7.850;2023-02-04T03:22:57;98089.22;;;4.20;67.99
32761;BME280;19126;47.472;7.850;2023-02-04T03:25:33;98096.63;;;4.26;68.08
32761;BME280;19126;47.472;7.850;2023-02-04T03:28:04;98088.28;;;4.21;68.22
32761;BME280;19126;47.472;7.850;2023-02-04T03:30:37;98098.56;;;4.22;68.38
32761;BME280;19126;47.472;7.850;2023-02-04T03:33:08;98095.88;;;4.24;69.33
32761;BME280;19126;47.472;7.850;2023-02-04T03:35:53;98106.28;;;4.24;69.38
32761;BME280;19126;47.472;7.850;2023-02-04T03:38:26;98120.66;;;4.30;68.37
32761;BME280;19126;47.472;7.850;2023-02-04T03:41:06;98119.38;;;4.22;69.87
32761;BME280;19126;47.472;7.850;2023-02-04T03:43:43;98110.94;;;4.19;69.92
32761;BME280;19126;47.472;7.850;2023-02-04T03:46:38;98121.06;;;4.23;69.26
32761;BME280;19126;47.472;7.850;2023-02-04T03:52:43;98140.19;;;4.22;69.69
32761;BME280;19126;47.472;7.850;2023-02-04T03:55:16;98153.66;;;4.29;69.28
32761;BME280;19126;47.472;7.850;2023-02-04T03:57:48;98146.06;;;4.26;69.11
32761;BME280;19126;47.472;7.850;2023-02-04T04:00:19;98143.34;;;4.28;68.05
32761;BME280;19126;47.472;7.850;2023-02-04T04:02:57;98138.97;;;4.28;67.25
32761;BME280;19126;47.472;7.850;2023-02-04T04:05:31;98138.81;;;4.17;67.70
32761;BME280;19126;47.472;7.850;2023-02-04T04:08:01;98148.00;;;4.22;67.17
32761;BME280;19126;47.472;7.850;2023-02-04T04:10:35;98146.44;;;4.20;65.96
32761;BME280;19126;47.472;7.850;2023-02-04T04:13:05;98160.81;;;4.25;65.47
32761;BME280;19126;47.472;7.850;2023-02-04T04:15:37;98147.16;;;4.22;66.45
32761;BME280;19126;47.472;7.850;2023-02-04T04:18:06;98150.50;;;4.24;67.13
32761;BME280;19126;47.472;7.850;2023-02-04T04:20:38;98146.31;;;4.21;67.76
32761;BME280;19126;47.472;7.850;2023-02-04T04:23:11;98136.09;;;4.18;66.61
32761;BME280;19126;47.472;7.850;2023-02-04T04:25:42;98114.75;;;4.13;66.12
32761;BME280;19126;47.472;7.850;2023-02-04T04:28:14;98125.72;;;4.18;64.32
32761;BME280;19126;47.472;7.850;2023-02-04T04:30:42;98128.97;;;4.22;63.71
32761;BME280;19126;47.472;7.850;2023-02-04T04:33:15;98126.63;;;4.17;62.66
32761;BME280;19126;47.472;7.850;2023-02-04T04:35:49;98134.34;;;4.19;61.92
32761;BME280;19126;47.472;7.850;2023-02-04T04:38:18;98131.03;;;4.17;61.78
32761;BME280;19126;47.472;7.850;2023-02-04T04:40:48;98136.97;;;4.19;60.25
32761;BME280;19126;47.472;7.850;2023-02-04T04:43:15;98118.69;;;4.06;58.96
32761;BME280;19126;47.472;7.850;2023-02-04T04:45:45;98142.44;;;4.14;57.58
32761;BME280;19126;47.472;7.850;2023-02-04T04:48:21;98134.75;;;4.13;55.98
32761;BME280;19126;47.472;7.850;2023-02-04T04:50:53;98130.00;;;4.05;54.90
32761;BME280;19126;47.472;7.850;2023-02-04T04:53:24;98124.63;;;4.08;52.68
32761;BME280;19126;47.472;7.850;2023-02-04T04:55:51;98117.19;;;4.02;51.40
32761;BME280;19126;47.472;7.850;2023-02-04T04:58:26;98130.75;;;4.07;49.82
32761;BME280;19126;47.472;7.850;2023-02-04T05:01:25;98109.78;;;3.95;46.35
32761;BME280;19126;47.472;7.850;2023-02-04T05:04:05;98122.50;;;4.00;43.95
32761;BME280;19126;47.472;7.850;2023-02-04T05:06:45;98121.84;;;3.96;43.54
32761;BME280;19126;47.472;7.850;2023-02-04T05:09:26;98125.19;;;3.99;42.38
32761;BME280;19126;47.472;7.850;2023-02-04T05:11:56;98114.06;;;3.96;40.77
32761;BME280;19126;47.472;7.850;2023-02-04T05:14:23;98120.25;;;3.94;39.60
32761;BME280;19126;47.472;7.850;2023-02-04T05:16:52;98127.03;;;3.96;37.72
32761;BME280;19126;47.472;7.850;2023-02-04T05:19:22;98126.19;;;3.96;37.09
32761;BME280;19126;47.472;7.850;2023-02-04T05:22:06;98117.97;;;3.89;35.81
32761;BME280;19126;47.472;7.850;2023-02-04T05:25:02;98116.28;;;3.88;34.49
32761;BME280;19126;47.472;7.850;2023-02-04T05:27:38;98118.78;;;3.90;33.10
32761;BME280;19126;47.472;7.850;2023-02-04T05:30:13;98126.19;;;3.96;31.41
32761;BME280;19126;47.472;7.850;2023-02-04T05:32:45;98112.09;;;3.86;30.05
32761;BME280;19126;47.472;7.850;2023-02-04T05:35:15;98137.44;;;3.96;29.03
32761;BME280;19126;47.472;7.850;2023-02-04T05:37:52;98136.59;;;3.96;28.49
32761;BME280;19126;47.472;7.850;2023-02-04T05:40:29;98119.91;;;3.86;27.94
32761;BME280;19126;47.472;7.850;2023-02-04T05:43:05;98121.50;;;3.88;26.24
32761;BME280;19126;47.472;7.850;2023-02-04T05:45:44;98119.81;;;3.87;26.23
32761;BME280;19126;47.472;7.850;2023-02-04T05:48:20;98123.97;;;3.90;25.60
32761;BME280;19126;47.472;7.850;2023-02-04T05:51:02;98131.69;;;3.91;24.93
32761;BME280;19126;47.472;7.850;2023-02-04T05:53:36;98135.84;;;3.94;23.44
32761;BME280;19126;47.472;7.850;2023-02-04T05:56:24;98140.25;;;3.93;23.41
32761;BME280;19126;47.472;7.850;2023-02-04T05:58:52;98132.72;;;3.89;22.07
32761;BME280;19126;47.472;7.850;2023-02-04T06:01:24;98143.75;;;3.92;22.25
32761;BME280;19126;47.472;7.850;2023-02-04T06:03:55;98145.63;;;3.90;21.14
32761;BME280;19126;47.472;7.850;2023-02-04T06:06:24;98152.56;;;3.90;21.38
32761;BME280;19126;47.472;7.850;2023-02-04T06:08:54;98154.97;;;3.93;20.94
32761;BME280;19126;47.472;7.850;2023-02-04T06:11:25;98139.69;;;3.88;20.64
32761;BME280;19126;47.472;7.850;2023-02-04T06:13:55;98146.44;;;3.91;20.25
32761;BME280;19126;47.472;7.850;2023-02-04T06:16:28;98157.59;;;3.93;20.44
32761;BME280;19126;47.472;7.850;2023-02-04T06:18:58;98149.78;;;3.93;20.63
32761;BME280;19126;47.472;7.850;2023-02-04T06:21:29;98150.81;;;3.90;19.80
32761;BME280;19126;47.472;7.850;2023-02-04T06:24:01;98133.81;;;3.85;19.59
32761;BME280;19126;47.472;7.850;2023-02-04T06:26:28;98127.63;;;3.87;19.19
32761;BME280;19126;47.472;7.850;2023-02-04T06:28:57;98136.72;;;3.94;20.07
32761;BME280;19126;47.472;7.850;2023-02-04T06:31:27;98128.91;;;3.94;19.17
32761;BME280;19126;47.472;7.850;2023-02-04T06:34:00;98121.09;;;3.94;18.56
32761;BME280;19126;47.472;7.850;2023-02-04T06:36:27;98119.63;;;3.90;18.70
32761;BME280;19126;47.472;7.850;2023-02-04T06:38:54;98130.56;;;3.95;18.71
32761;BME280;19126;47.472;7.850;2023-02-04T06:41:22;98124.44;;;3.96;18.65
32761;BME280;19126;47.472;7.850;2023-02-04T06:43:52;98134.84;;;3.96;17.63
32761;BME280;19126;47.472;7.850;2023-02-04T06:46:23;98133.66;;;4.02;17.82
32761;BME280;19126;47.472;7.850;2023-02-04T06:48:50;98140.41;;;4.05;18.39
32761;BME280;19126;47.472;7.850;2023-02-04T06:51:21;98138.09;;;4.00;18.13
32761;BME280;19126;47.472;7.850;2023-02-04T06:53:48;98132.81;;;4.02;17.36
32761;BME280;19126;47.472;7.850;2023-02-04T06:56:26;98136.88;;;4.06;17.10
32761;BME280;19126;47.472;7.850;2023-02-04T06:58:57;98129.19;;;4.04;17.17
32761;BME280;19126;47.472;7.850;2023-02-04T07:01:24;98128.06;;;4.08;17.39
32761;BME280;19126;47.472;7.850;2023-02-04T07:03:56;98126.47;;;4.06;17.27
32761;BME280;19126;47.472;7.850;2023-02-04T07:06:28;98137.88;;;4.18;17.42
32761;BME280;19126;47.472;7.850;2023-02-04T07:08:55;98140.19;;;4.22;16.84
32761;BME280;19126;47.472;7.850;2023-02-04T07:11:26;98133.13;;;4.24;17.25
32761;BME280;19126;47.472;7.850;2023-02-04T07:14:00;98142.50;;;4.27;17.19
32761;BME280;19126;47.472;7.850;2023-02-04T07:16:45;98143.88;;;4.33;16.54
32761;BME280;19126;47.472;7.850;2023-02-04T07:19:30;98156.88;;;4.33;16.55
32761;BME280;19126;47.472;7.850;2023-02-04T07:22:02;98151.88;;;4.30;17.07
32761;BME280;19126;47.472;7.850;2023-02-04T07:24:38;98151.22;;;4.40;16.70
32761;BME280;19126;47.472;7.850;2023-02-04T07:27:08;98146.94;;;4.39;16.78
32761;BME280;19126;47.472;7.850;2023-02-04T07:29:38;98155.09;;;4.48;16.86
32761;BME280;19126;47.472;7.850;2023-02-04T07:32:09;98158.53;;;4.48;17.96
32761;BME280;19126;47.472;7.850;2023-02-04T07:34:37;98154.78;;;4.52;17.10
32761;BME280;19126;47.472;7.850;2023-02-04T07:37:08;98151.44;;;4.50;17.35
32761;BME280;19126;47.472;7.850;2023-02-04T07:39:40;98153.78;;;4.55;17.50
32761;BME280;19126;47.472;7.850;2023-02-04T07:42:16;98150.25;;;4.56;17.56
32761;BME280;19126;47.472;7.850;2023-02-04T07:44:49;98153.28;;;4.63;16.96
32761;BME280;19126;47.472;7.850;2023-02-04T07:47:22;98156.81;;;4.62;17.63
32761;BME280;19126;47.472;7.850;2023-02-04T07:49:51;98156.72;;;4.63;17.09
32761;BME280;19126;47.472;7.850;2023-02-04T07:52:23;98159.47;;;4.75;17.21
32761;BME280;19126;47.472;7.850;2023-02-04T07:55:02;98160.41;;;4.74;17.70
32761;BME280;19126;47.472;7.850;2023-02-04T07:57:35;98166.22;;;4.77;17.34
32761;BME280;19126;47.472;7.850;2023-02-04T08:00:08;98179.50;;;4.87;17.62
32761;BME280;19126;47.472;7.850;2023-02-04T08:02:40;98178.56;;;4.88;17.47
32761;BME280;19126;47.472;7.850;2023-02-04T08:05:09;98180.13;;;4.91;17.02
32761;BME280;19126;47.472;7.850;2023-02-04T08:07:38;98174.91;;;4.91;17.19
32761;BME280;19126;47.472;7.850;2023-02-04T08:10:11;98162.28;;;4.84;17.05
32761;BME280;19126;47.472;7.850;2023-02-04T08:12:47;98163.75;;;4.89;17.32
32761;BME280;19126;47.472;7.850;2023-02-04T08:15:19;98167.09;;;4.91;17.57
32761;BME280;19126;47.472;7.850;2023-02-04T08:17:49;98171.28;;;4.93;17.82
32761;BME280;19126;47.472;7.850;2023-02-04T08:20:20;98154.19;;;4.89;17.55
32761;BME280;19126;47.472;7.850;2023-02-04T08:23:20;98173.91;;;4.93;17.84
32761;BME280;19126;47.472;7.850;2023-02-04T08:26:09;98166.09;;;4.93;17.80
32761;BME280;19126;47.472;7.850;2023-02-04T08:28:51;98157.09;;;4.84;17.29
32761;BME280;19126;47.472;7.850;2023-02-04T08:31:30;98160.88;;;4.93;17.41
32761;BME280;19126;47.472;7.850;2023-02-04T08:35:37;98168.78;;;4.92;17.31
32761;BME280;19126;47.472;7.850;2023-02-04T08:40:06;98172.31;;;4.91;17.23
32761;BME280;19126;47.472;7.850;2023-02-04T08:42:38;98168.78;;;4.92;17.31
32761;BME280;19126;47.472;7.850;2023-02-04T08:45:15;98168.56;;;4.95;17.68
32761;BME280;19126;47.472;7.850;2023-02-04T08:47:45;98180.44;;;4.99;16.94
32761;BME280;19126;47.472;7.850;2023-02-04T08:53:55;98173.19;;;5.04;17.15
32761;BME280;19126;47.472;7.850;2023-02-04T08:56:39;98183.84;;;5.14;17.27
32761;BME280;19126;47.472;7.850;2023-02-04T09:42:13;98193.50;;;5.65;19.38
32761;BME280;19126;47.472;7.850;2023-02-04T09:47:46;98222.28;;;5.77;20.84
32761;BME280;19126;47.472;7.850;2023-02-04T09:50:58;98206.00;;;5.73;20.68
32761;BME280;19126;47.472;7.850;2023-02-04T09:54:21;98218.94;;;5.75;21.59
32761;BME280;19126;47.472;7.850;2023-02-04T10:07:31;98223.84;;;5.79;23.88
32761;BME280;19126;47.472;7.850;2023-02-04T10:10:21;98232.81;;;5.88;25.02
32761;BME280;19126;47.472;7.850;2023-02-04T10:13:16;98227.69;;;5.86;25.10
32761;BME280;19126;47.472;7.850;2023-02-04T10:16:21;98229.38;;;5.87;25.44
32761;BME280;19126;47.472;7.850;2023-02-04T10:23:04;98250.34;;;5.99;25.43
32761;BME280;19126;47.472;7.850;2023-02-04T10:26:08;98240.75;;;5.99;25.81
32761;BME280;19126;47.472;7.850;2023-02-04T10:29:30;98245.06;;;6.00;25.33
32761;BME280;19126;47.472;7.850;2023-02-04T10:32:55;98242.44;;;6.00;26.32
32761;BME280;19126;47.472;7.850;2023-02-04T12:27:35;98225.72;;;6.29;54.07
32761;BME280;19126;47.472;7.850;2023-02-04T12:30:02;98228.94;;;6.33;54.33
32761;BME280;19126;47.472;7.850;2023-02-04T12:32:29;98238.75;;;6.29;54.50
32761;BME280;19126;47.472;7.850;2023-02-04T12:34:59;98243.75;;;6.32;54.28
32761;BME280;19126;47.472;7.850;2023-02-04T12:37:32;98242.72;;;6.35;55.09
32761;BME280;19126;47.472;7.850;2023-02-04T12:40:02;98236.88;;;6.31;55.49
32761;BME280;19126;47.472;7.850;2023-02-04T12:42:38;98236.06;;;6.30;55.07
32761;BME280;19126;47.472;7.850;2023-02-04T12:45:12;98238.78;;;6.16;57.24
32761;BME280;19126;47.472;7.850;2023-02-04T12:47:44;98242.34;;;6.15;57.23
32761;BME280;19126;47.472;7.850;2023-02-04T12:50:17;98234.94;;;6.09;56.15
32761;BME280;19126;47.472;7.850;2023-02-04T12:53:00;98232.31;;;6.09;57.57
32761;BME280;19126;47.472;7.850;2023-02-04T12:55:28;98247.56;;;6.15;56.57
32761;BME280;19126;47.472;7.850;2023-02-04T12:57:59;98240.84;;;5.98;57.66
32761;BME280;19126;47.472;7.850;2023-02-04T13:00:28;98245.25;;;6.10;57.00
32761;BME280;19126;47.472;7.850;2023-02-04T13:02:59;98237.41;;;6.10;57.11
32761;BME280;19126;47.472;7.850;2023-02-04T13:05:32;98240.56;;;6.03;59.00
32761;BME280;19126;47.472;7.850;2023-02-04T13:08:13;98248.59;;;6.12;59.25
32761;BME280;19126;47.472;7.850;2023-02-04T13:11:08;98239.59;;;6.16;59.61
32761;BME280;19126;47.472;7.850;2023-02-04T13:20:35;98248.59;;;6.25;60.47
32761;BME280;19126;47.472;7.850;2023-02-04T13:23:05;98242.13;;;6.18;62.45
32761;BME280;19126;47.472;7.850;2023-02-04T16:49:09;98333.97;;;4.30;100.00
32761;BME280;19126;47.472;7.850;2023-02-04T16:51:36;98345.78;;;4.06;100.00
32761;BME280;19126;47.472;7.850;2023-02-04T16:54:03;98351.59;;;3.95;100.00
32761;BME280;19126;47.472;7.850;2023-02-04T16:56:30;98345.81;;;3.90;100.00
32761;BME280;19126;47.472;7.850;2023-02-04T16:59:07;98356.56;;;3.84;100.00
32761;BME280;19126;47.472;7.850;2023-02-04T17:01:35;98357.00;;;3.76;98.56
32761;BME280;19126;47.472;7.850;2023-02-04T17:04:03;98356.69;;;3.66;96.08
32761;BME280;19126;47.472;7.850;2023-02-04T17:06:34;98366.06;;;3.69;91.15
32761;BME280;19126;47.472;7.850;2023-02-04T17:09:09;98354.09;;;3.66;89.13
32761;BME280;19126;47.472;7.850;2023-02-04T17:11:40;98361.78;;;3.68;87.17
32761;BME280;19126;47.472;7.850;2023-02-04T17:14:22;98355.38;;;3.59;85.18
32761;BME280;19126;47.472;7.850;2023-02-04T17:17:04;98357.69;;;3.64;82.52
32761;BME280;19126;47.472;7.850;2023-02-04T17:19:48;98361.16;;;3.64;80.26
32761;BME280;19126;47.472;7.850;2023-02-04T17:22:27;98373.13;;;3.67;78.78
32761;BME280;19126;47.472;7.850;2023-02-04T17:25:08;98361.72;;;3.70;76.44
32761;BME280;19126;47.472;7.850;2023-02-04T17:27:35;98349.25;;;3.60;73.67
32761;BME280;19126;47.472;7.850;2023-02-04T17:30:22;98362.53;;;3.70;71.01
32761;BME280;19126;47.472;7.850;2023-02-04T17:32:50;98369.16;;;3.76;70.83
32761;BME280;19126;47.472;7.850;2023-02-04T17:35:20;98364.91;;;3.75;69.88
32761;BME280;19126;47.472;7.850;2023-02-04T17:37:51;98376.50;;;3.84;69.98
32761;BME280;19126;47.472;7.850;2023-02-04T17:40:19;98377.53;;;3.81;67.92
32761;BME280;19126;47.472;7.850;2023-02-04T17:42:49;98375.00;;;3.79;66.68
32761;BME280;19126;47.472;7.850;2023-02-04T17:45:19;98372.53;;;3.78;64.56
32761;BME280;19126;47.472;7.850;2023-02-04T17:47:48;98379.22;;;3.82;62.75
32761;BME280;19126;47.472;7.850;2023-02-04T17:50:28;98364.03;;;3.74;60.84
32761;BME280;19126;47.472;7.850;2023-02-04T17:53:14;98378.81;;;3.74;59.46
32761;BME280;19126;47.472;7.850;2023-02-04T17:55:45;98388.13;;;3.78;57.50
32761;BME280;19126;47.472;7.850;2023-02-04T17:58:21;98389.88;;;3.77;57.22
32761;BME280;19126;47.472;7.850;2023-02-04T18:00:49;98384.50;;;3.80;56.06
32761;BME280;19126;47.472;7.850;2023-02-04T18:03:24;98392.38;;;3.79;55.35
32761;BME280;19126;47.472;7.850;2023-02-04T18:05:55;98383.16;;;3.73;54.97
32761;BME280;19126;47.472;7.850;2023-02-04T18:08:27;98381.13;;;3.78;53.60
32761;BME280;19126;47.472;7.850;2023-02-04T18:11:34;98385.59;;;3.76;54.23
32761;BME280;19126;47.472;7.850;2023-02-04T18:14:19;98383.69;;;3.64;53.43
32761;BME280;19126;47.472;7.850;2023-02-04T18:17:26;98377.75;;;3.62;54.04
32761;BME280;19126;47.472;7.850;2023-02-04T18:20:18;98385.28;;;3.66;54.24
32761;BME280;19126;47.472;7.850;2023-02-04T18:23:05;98398.19;;;3.68;52.66
32761;BME280;19126;47.472;7.850;2023-02-04T18:25:44;98395.75;;;3.65;53.01
32761;BME280;19126;47.472;7.850;2023-02-04T18:28:24;98389.97;;;3.60;52.05
32761;BME280;19126;47.472;7.850;2023-02-04T18:30:52;98401.63;;;3.69;50.23
32761;BME280;19126;47.472;7.850;2023-02-04T18:33:26;98393.16;;;3.65;49.96
32761;BME280;19126;47.472;7.850;2023-02-04T18:36:00;98379.59;;;3.60;49.04
32761;BME280;19126;47.472;7.850;2023-02-04T18:38:35;98388.97;;;3.62;49.83
32761;BME280;19126;47.472;7.850;2023-02-04T18:41:30;98398.53;;;3.62;48.20
32761;BME280;19126;47.472;7.850;2023-02-04T18:44:27;98401.88;;;3.64;47.83
32761;BME280;19126;47.472;7.850;2023-02-04T18:46:58;98411.19;;;3.68;46.95
32761;BME280;19126;47.472;7.850;2023-02-04T18:49:28;98400.78;;;3.68;46.42
32761;BME280;19126;47.472;7.850;2023-02-04T18:51:56;98402.44;;;3.69;45.48
32761;BME280;19126;47.472;7.850;2023-02-04T18:54:32;98394.66;;;3.69;46.20
32761;BME280;19126;47.472;7.850;2023-02-04T18:57:27;98398.28;;;3.66;46.06
32761;BME280;19126;47.472;7.850;2023-02-04T19:00:22;98400.03;;;3.66;45.06
32761;BME280;19126;47.472;7.850;2023-02-04T19:02:54;98401.81;;;3.65;44.73
32761;BME280;19126;47.472;7.850;2023-02-04T19:05:36;98408.84;;;3.63;44.93
32761;BME280;19126;47.472;7.850;2023-02-04T19:08:43;98397.19;;;3.55;44.74
32761;BME280;19126;47.472;7.850;2023-02-04T19:22:36;98398.88;;;3.23;46.34
32761;BME280;19126;47.472;7.850;2023-02-04T19:25:57;98401.66;;;3.20;48.20
32761;BME280;19126;47.472;7.850;2023-02-04T19:32:46;98412.63;;;3.10;48.28
32761;BME280;19126;47.472;7.850;2023-02-04T19:46:27;98410.88;;;2.94;46.13
32761;BME280;19126;47.472;7.850;2023-02-04T19:49:44;98410.09;;;2.92;45.37
32761;BME280;19126;47.472;7.850;2023-02-04T19:53:05;98409.69;;;2.84;44.88
32761;BME280;19126;47.472;7.850;2023-02-04T19:56:02;98413.25;;;2.81;44.39
32761;BME280;19126;47.472;7.850;2023-02-04T19:59:23;98411.75;;;2.77;43.48
32761;BME280;19126;47.472;7.850;2023-02-04T20:02:18;98419.63;;;2.75;43.73
32761;BME280;19126;47.472;7.850;2023-02-04T20:05:11;98417.25;;;2.71;42.99
32761;BME280;19126;47.472;7.850;2023-02-04T20:07:40;98408.94;;;2.64;43.50
32761;BME280;19126;47.472;7.850;2023-02-04T20:10:18;98415.81;;;2.65;42.79
32761;BME280;19126;47.472;7.850;2023-02-04T20:12:54;98417.94;;;2.57;43.06
32761;BME280;19126;47.472;7.850;2023-02-04T20:15:39;98412.75;;;2.57;43.12
32761;BME280;19126;47.472;7.850;2023-02-04T20:18:18;98419.78;;;2.55;41.88
32761;BME280;19126;47.472;7.850;2023-02-04T20:25:03;98419.78;;;2.55;42.60
32761;BME280;19126;47.472;7.850;2023-02-04T20:29:04;98418.25;;;2.51;42.04
32761;BME280;19126;47.472;7.850;2023-02-04T20:38:15;98420.69;;;2.20;44.80
32761;BME280;19126;47.472;7.850;2023-02-04T20:41:19;98416.91;;;2.08;45.49
32761;BME280;19126;47.472;7.850;2023-02-04T20:44:29;98431.88;;;2.03;45.77
32761;BME280;19126;47.472;7.850;2023-02-04T20:47:19;98441.25;;;2.05;45.80
32761;BME280;19126;47.472;7.850;2023-02-04T20:49:53;98444.16;;;1.99;44.80
32761;BME280;19126;47.472;7.850;2023-02-04T20:55:47;98441.09;;;1.91;45.50
32761;BME280;19126;47.472;7.850;2023-02-04T20:58:19;98441.00;;;1.93;44.58
32761;BME280;19126;47.472;7.850;2023-02-04T21:00:51;98443.69;;;1.91;44.35
32761;BME280;19126;47.472;7.850;2023-02-04T21:03:26;98450.75;;;1.87;44.48
32761;BME280;19126;47.472;7.850;2023-02-04T21:06:21;98437.47;;;1.76;43.82
32761;BME280;19126;47.472;7.850;2023-02-04T21:09:05;98445.41;;;1.73;44.67